Dwight, North Dakota
Current Conditions -  °F | °C
As of 6:55 PM on Saturday 25 Oct 2014 (Local Time) from KBWP Reporting Station
Clear Clear  
Wind Chill: 52°   Ceiling: Unl
Heat Index: 52°   Visibility: 10mi
Dew Point: 18°   Wind: 0mph
Humidity: 26%   Direction: NA
Pressure: 30.06"   Gusts: NA
Location:  46.3099°N, 96.7867°W
Report Text: KBWP 252355Z AUTO 00000KT 10SM CLR 11/M08 A3006 RMK AO1
Loading
Personal Weather Stations






























Interactive Weather Map
Tropical Storm Tracking
New forecast layout! Learn more

10-Day Weather Forecast

Advertisements
Track Severe Weather on mobile